Nearby METAR Reports

 

LGTG - Tanagra, Greece
Distance from station: ESE 75km
Updated: 23/07/2024 16:50
Few Clouds
Few Clouds
 Wind from NNE
Wind: NNE 15 km/h
Temperature: 36°C
Dew Point: 13°C
Humidity: 25%
Barometer: 1009 hPa
Clouds: Few Clouds
Visibility: 10 km
Cloud details: Few Clouds 914 m
2024/07/23 13:50 LGTG 231350Z 03008KT 9999 FEW030 36/13 Q1009 RMK SCT180 BLU
LGBL - Nea Anchialos, Greece
Distance from station: NNE 84km
Updated: 23/07/2024 17:20
Few Clouds
Few Clouds
 Wind from ESE
Wind: ESE 26 km/h
Temperature: 34°C
Heat Index: 37°C
Dew Point: 21°C
Humidity: 47%
Barometer: 1008 hPa
Clouds: Few Clouds
Visibility: 10 km
Cloud details: Few Clouds 762 m
2024/07/23 14:20 LGBL 231420Z 12014KT 9999 FEW025 34/21 Q1008
 
LGEL - Elefsis (hel-Afb), Greece
Distance from station: ESE 96km
Updated: 23/07/2024 17:20
Light thunderstorm, Rain, Few clouds
Light thunderstorm, Rain, Few clouds
 Wind from W
Wind: W 11 km/h
Temperature: 32°C
Heat Index: 33°C
Dew Point: 18°C
Humidity: 43%
Barometer: 1008 hPa
Summary: Light thunderstorm, Rain
Clouds: Few Clouds
Visibility: 10 km
Cloud details: Few Clouds 549 m
2024/07/23 14:20 LGEL 231420Z 28006KT 9999 -TSRA FEW018CB 32/18 Q1008
LGRX - Araxos (civ/Afb), Greece
Distance from station: WSW 108km
Updated: 23/07/2024 17:20
Few Clouds
Few Clouds
 Wind from E
Wind: E 17 km/h
Temperature: 33°C
Heat Index: 39°C
Dew Point: 24°C
Humidity: 59%
Barometer: 1008 hPa
Clouds: Few Clouds
Visibility: 10 km
Cloud details: Few Clouds 549 m
2024/07/23 14:20 LGRX 231420Z 10009KT 9999 FEW018TCU 33/24 Q1008
 
LGSK - Skiathos Island, Greece
Distance from station: NE 111km
Updated: 23/07/2024 17:20
Clear
Clear
 Wind from NNE
Wind: NNE 13 km/h
Temperature: 32°C
Heat Index: 38°C
Dew Point: 24°C
Humidity: 63%
Barometer: 1009 hPa
Summary: Clear
Visibility: greater than 10 km
2024/07/23 14:20 LGSK 231420Z 02007KT CAVOK 32/24 Q1009
LGAD - Andravida (civ/A), Greece
Distance from station: WSW 131km
Updated: 23/07/2024 17:20
Few Clouds
Few Clouds
 Wind from SSW
Wind: SSW 13 km/h
Temperature: 34°C
Heat Index: 39°C
Dew Point: 23°C
Humidity: 53%
Barometer: 1008 hPa
Clouds: Few Clouds
Visibility: 10 km
Cloud details: Few Clouds 610 m
2024/07/23 14:20 LGAD 231420Z 20007KT 9999 FEW020TCU 34/23 Q1008
 
LGAV - Athens/El-Venizelos International Airport, Greece
Distance from station: ESE 134km
Updated: 23/07/2024 17:20
Partly Cloudy
Partly Cloudy
 Wind from NE
Wind: NE 20 km/h, Gust: 39 km/h
Temperature: 33°C
Dew Point: 16°C
Humidity: 36%
Barometer: 1009 hPa
Clouds: Partly Cloudy
Visibility: 10 km
Cloud details: Few Clouds 549 m
Partly Cloudy 762 m
2024/07/23 14:20 LGAV 231420Z 05011G21KT 9999 FEW018TCU SCT025 33/16 Q1009 NOSIG
LGPZ - Preveza/Aktion, Greece
Distance from station: W 159km
Updated: 23/07/2024 17:20
Mostly Cloudy
Mostly Cloudy
 Wind from NE
Wind: NE 28 km/h
Temperature: 31°C
Heat Index: 34°C
Dew Point: 21°C
Humidity: 55%
Barometer: 1009 hPa
Clouds: Mostly Cloudy
Visibility: 10 km
Cloud details: Few Clouds 549 m
Mostly Cloudy 2438 m
2024/07/23 14:20 LGPZ 231420Z 04015KT 9999 FEW018TCU BKN080 31/21 Q1009